createdAt,value
2022-10-18T00:00:59.641Z,101430.78
2022-10-18T00:03:27.224Z,101439.34
2022-10-18T00:05:54.856Z,101438.50
2022-10-18T00:08:23.021Z,101432.94
2022-10-18T00:10:51.248Z,101434.63
2022-10-18T00:13:20.562Z,101442.78
2022-10-18T00:15:52.165Z,101434.38
2022-10-18T00:18:20.835Z,101428.63
2022-10-18T00:20:57.976Z,101442.28
2022-10-18T00:23:25.811Z,101433.38
2022-10-18T00:26:00.422Z,101444.59
2022-10-18T00:28:29.472Z,101439.19
2022-10-18T00:30:57.202Z,101432.53
2022-10-18T00:33:25.049Z,101430.03
2022-10-18T00:35:52.619Z,101435.56
2022-10-18T00:38:20.168Z,101431.44
2022-10-18T00:40:47.760Z,101439.69
2022-10-18T00:43:18.057Z,101434.31
2022-10-18T00:45:47.041Z,101433.13
2022-10-18T00:48:18.388Z,101431.56
2022-10-18T00:50:46.671Z,101421.84
2022-10-18T00:53:19.190Z,101425.56
2022-10-18T00:55:47.497Z,101427.56
2022-10-18T00:58:17.985Z,101421.53
2022-10-18T01:00:47.160Z,101423.78
2022-10-18T01:03:14.834Z,101423.00
2022-10-18T01:05:45.758Z,101428.09
2022-10-18T01:08:33.453Z,101418.06
2022-10-18T01:11:10.894Z,101419.25
2022-10-18T01:13:50.687Z,101415.84
2022-10-18T01:16:25.596Z,101412.25
2022-10-18T01:18:59.542Z,101415.34
2022-10-18T01:21:39.284Z,101411.47
2022-10-18T01:24:44.965Z,101409.69
2022-10-18T01:27:33.321Z,101406.69
2022-10-18T01:30:32.184Z,101404.66
2022-10-18T01:33:06.654Z,101408.16
2022-10-18T01:35:39.504Z,101398.88
2022-10-18T01:38:12.469Z,101408.63
2022-10-18T01:40:42.782Z,101396.88
2022-10-18T01:43:12.928Z,101394.53
2022-10-18T01:45:42.687Z,101400.75
2022-10-18T01:48:13.087Z,101398.72
2022-10-18T01:50:40.760Z,101401.06
2022-10-18T01:53:23.026Z,101406.59
2022-10-18T01:56:01.051Z,101392.50
2022-10-18T01:58:38.004Z,101391.91
2022-10-18T02:01:12.857Z,101391.22
2022-10-18T02:03:46.329Z,101386.56
2022-10-18T02:06:21.160Z,101393.19
2022-10-18T02:08:53.512Z,101384.94
2022-10-18T02:11:21.551Z,101392.28
2022-10-18T02:13:54.092Z,101384.09
2022-10-18T02:16:26.829Z,101376.91
2022-10-18T02:18:59.506Z,101377.63
2022-10-18T02:21:30.212Z,101381.66
2022-10-18T02:24:01.331Z,101372.97
2022-10-18T02:26:29.302Z,101383.72
2022-10-18T02:28:57.296Z,101380.53
2022-10-18T02:31:30.939Z,101376.34
2022-10-18T02:34:05.844Z,101381.91
2022-10-18T02:36:38.904Z,101380.53
2022-10-18T02:39:14.238Z,101378.69
2022-10-18T02:41:42.551Z,101377.00
2022-10-18T02:44:10.527Z,101382.72
2022-10-18T02:46:38.357Z,101380.03
2022-10-18T02:49:07.454Z,101379.34
2022-10-18T02:51:35.344Z,101383.84
2022-10-18T02:54:03.023Z,101391.34
2022-10-18T02:56:30.647Z,101389.47
2022-10-18T02:58:58.208Z,101392.47
2022-10-18T03:01:25.970Z,101396.66
2022-10-18T03:03:53.667Z,101405.00
2022-10-18T03:06:22.610Z,101406.69
2022-10-18T03:08:50.379Z,101410.03
2022-10-18T03:11:18.046Z,101441.09
2022-10-18T03:13:45.650Z,101454.34
2022-10-18T03:16:13.606Z,101450.13
2022-10-18T03:18:41.224Z,101425.16
2022-10-18T03:21:09.663Z,101433.88
2022-10-18T03:23:38.605Z,101449.00
2022-10-18T03:26:06.579Z,101438.25
2022-10-18T03:28:34.216Z,101441.28
2022-10-18T03:31:02.846Z,101444.16
2022-10-18T03:33:30.956Z,101438.59
2022-10-18T03:35:58.592Z,101437.56
2022-10-18T03:38:26.234Z,101446.66
2022-10-18T03:40:55.235Z,101451.53
2022-10-18T03:43:22.872Z,101435.78
2022-10-18T03:45:50.558Z,101430.16
2022-10-18T03:48:18.193Z,101441.06
2022-10-18T03:50:45.783Z,101448.78
2022-10-18T03:53:13.335Z,101441.84
2022-10-18T03:55:41.250Z,101446.06
2022-10-18T03:58:10.306Z,101455.78
2022-10-18T04:00:37.909Z,101456.16
2022-10-18T04:03:05.568Z,101452.81
2022-10-18T04:05:34.365Z,101462.00
2022-10-18T04:08:01.986Z,101454.78
2022-10-18T04:10:29.980Z,101453.47
2022-10-18T04:12:57.692Z,101461.00
2022-10-18T04:15:26.581Z,101465.19
2022-10-18T04:17:54.214Z,101465.47
2022-10-18T04:20:21.780Z,101465.16
2022-10-18T04:22:49.945Z,101470.34
2022-10-18T04:25:18.203Z,101464.81
2022-10-18T04:27:45.811Z,101471.88
2022-10-18T04:30:13.564Z,101473.13
2022-10-18T04:32:42.910Z,101467.56
2022-10-18T04:35:11.211Z,101467.78
2022-10-18T04:37:39.140Z,101463.72
2022-10-18T04:40:08.006Z,101456.16
2022-10-18T04:42:35.582Z,101459.69
2022-10-18T04:45:03.419Z,101466.53
2022-10-18T04:47:31.318Z,101458.81
2022-10-18T04:50:00.509Z,101462.84
2022-10-18T04:52:28.123Z,101456.16
2022-10-18T04:54:55.735Z,101449.97
2022-10-18T04:57:23.414Z,101459.31
2022-10-18T04:59:50.991Z,101450.09
2022-10-18T05:02:18.672Z,101454.47
2022-10-18T05:04:46.245Z,101459.84
2022-10-18T05:07:15.156Z,101459.53
2022-10-18T05:09:42.774Z,101460.69
2022-10-18T05:12:10.426Z,101455.19
2022-10-18T05:14:38.014Z,101456.84
2022-10-18T05:17:05.647Z,101470.59
2022-10-18T05:19:33.314Z,101468.22
2022-10-18T05:22:00.928Z,101461.66
2022-10-18T05:24:29.927Z,101460.00
2022-10-18T05:26:57.591Z,101454.81
2022-10-18T05:31:58.444Z,101470.25
2022-10-18T05:34:27.252Z,101461.66
2022-10-18T05:36:54.891Z,101446.72
2022-10-18T05:39:22.662Z,101441.78
2022-10-18T05:41:51.598Z,101447.47
2022-10-18T05:44:19.229Z,101453.97
2022-10-18T05:46:46.831Z,101453.31
2022-10-18T05:49:14.568Z,101464.53
2022-10-18T05:51:42.324Z,101464.72
2022-10-18T05:54:12.169Z,101467.56
2022-10-18T05:56:39.951Z,101459.19
2022-10-18T05:59:11.949Z,101454.16
2022-10-18T06:01:40.845Z,101457.19
2022-10-18T06:04:10.042Z,101457.88
2022-10-18T06:06:38.918Z,101456.38
2022-10-18T06:09:08.201Z,101455.69
2022-10-18T06:11:36.157Z,101468.94
2022-10-18T06:14:04.318Z,101469.25
2022-10-18T06:16:33.397Z,101456.84
2022-10-18T06:19:01.120Z,101459.53
2022-10-18T06:21:29.099Z,101465.91
2022-10-18T06:23:58.497Z,101465.69
2022-10-18T06:26:26.562Z,101454.28
2022-10-18T06:28:54.235Z,101450.59
2022-10-18T06:31:22.222Z,101450.75
2022-10-18T06:33:51.170Z,101452.94
2022-10-18T06:36:21.920Z,101457.84
2022-10-18T06:38:49.945Z,101453.31
2022-10-18T06:41:19.113Z,101469.22
2022-10-18T06:43:49.522Z,101473.25
2022-10-18T06:46:17.289Z,101489.00
2022-10-18T06:48:44.919Z,101492.00
2022-10-18T06:51:15.130Z,101492.84
2022-10-18T06:53:58.743Z,101502.41
2022-10-18T06:56:31.440Z,101514.47
2022-10-18T07:01:31.786Z,101514.97
2022-10-18T07:03:59.497Z,101529.91
2022-10-18T07:06:28.541Z,101532.41
2022-10-18T07:08:57.007Z,101526.22
2022-10-18T07:11:26.519Z,101522.50
2022-10-18T07:13:55.385Z,101525.34
2022-10-18T07:16:23.071Z,101529.91
2022-10-18T07:18:52.197Z,101522.84
2022-10-18T07:21:22.155Z,101537.78
2022-10-18T07:23:51.903Z,101533.44
2022-10-18T07:26:21.861Z,101533.44
2022-10-18T07:28:51.619Z,101534.94
2022-10-18T07:31:19.345Z,101536.44
2022-10-18T07:33:46.961Z,101544.66
2022-10-18T07:36:15.108Z,101552.41
2022-10-18T07:38:42.750Z,101544.63
2022-10-18T07:41:13.768Z,101550.34
2022-10-18T07:43:44.407Z,101550.63
2022-10-18T07:46:12.417Z,101549.78
2022-10-18T07:48:40.254Z,101543.72
2022-10-18T07:51:08.218Z,101541.53
2022-10-18T07:53:36.323Z,101544.50
2022-10-18T07:56:08.738Z,101547.34
2022-10-18T07:58:38.658Z,101549.47
2022-10-18T08:01:07.898Z,101538.38
2022-10-18T08:03:36.183Z,101546.75
2022-10-18T08:06:04.782Z,101544.00
2022-10-18T08:08:32.666Z,101542.41
2022-10-18T08:11:03.571Z,101542.13
2022-10-18T08:13:31.535Z,101542.72
2022-10-18T08:16:03.764Z,101559.06
2022-10-18T08:18:31.889Z,101561.53
2022-10-18T08:21:00.480Z,101563.28
2022-10-18T08:23:28.157Z,101566.09
2022-10-18T08:25:55.807Z,101568.94
2022-10-18T08:28:23.815Z,101574.25
2022-10-18T08:30:51.498Z,101576.84
2022-10-18T08:33:20.412Z,101579.88
2022-10-18T08:35:56.040Z,101578.69
2022-10-18T08:38:23.692Z,101579.03
2022-10-18T08:40:51.472Z,101569.94
2022-10-18T08:43:28.127Z,101568.00
2022-10-18T08:45:56.234Z,101568.56
2022-10-18T08:48:33.590Z,101560.09
2022-10-18T08:51:02.187Z,101552.88
2022-10-18T08:53:36.287Z,101547.88
2022-10-18T08:56:14.697Z,101553.88
2022-10-18T08:58:44.739Z,101551.38
2022-10-18T09:01:26.728Z,101549.25
2022-10-18T09:04:13.126Z,101550.31
2022-10-18T09:06:49.679Z,101545.19
2022-10-18T09:09:29.518Z,101563.84
2022-10-18T09:12:10.195Z,101559.22
2022-10-18T09:14:58.541Z,101554.06
2022-10-18T09:17:35.497Z,101558.34
2022-10-18T09:20:23.054Z,101560.81
2022-10-18T09:22:56.551Z,101559.50
2022-10-18T09:25:26.388Z,101561.06
2022-10-18T09:27:56.568Z,101554.16
2022-10-18T09:30:42.612Z,101567.81
2022-10-18T09:33:35.810Z,101569.59
2022-10-18T09:36:07.523Z,101567.81
2022-10-18T09:38:42.832Z,101565.44
2022-10-18T09:41:16.063Z,101575.72
2022-10-18T09:43:51.748Z,101577.03
2022-10-18T09:46:22.879Z,101582.81
2022-10-18T09:48:54.153Z,101579.25
2022-10-18T09:51:26.558Z,101576.03
2022-10-18T09:54:07.934Z,101584.88
2022-10-18T09:56:42.067Z,101582.19
2022-10-18T09:59:34.308Z,101580.50
2022-10-18T10:02:01.971Z,101582.50
2022-10-18T10:04:29.784Z,101580.41
2022-10-18T10:07:01.801Z,101581.94
2022-10-18T10:09:32.275Z,101584.53
2022-10-18T10:11:59.876Z,101589.41
2022-10-18T10:14:30.303Z,101593.84
2022-10-18T10:16:59.397Z,101596.66
2022-10-18T10:19:33.266Z,101610.25
2022-10-18T10:22:06.649Z,101601.63
2022-10-18T10:24:44.136Z,101604.25
2022-10-18T10:27:18.977Z,101606.84
2022-10-18T10:29:53.809Z,101608.78
2022-10-18T10:32:23.485Z,101608.53
2022-10-18T10:34:51.487Z,101612.59
2022-10-18T10:37:30.367Z,101610.56
2022-10-18T10:40:22.893Z,101612.81
2022-10-18T10:43:18.263Z,101614.69
2022-10-18T10:46:03.135Z,101611.69
2022-10-18T10:48:34.635Z,101615.56
2022-10-18T10:51:05.917Z,101609.56
2022-10-18T10:53:58.434Z,101611.59
2022-10-18T10:56:28.639Z,101619.00
2022-10-18T10:58:58.835Z,101626.34
2022-10-18T11:01:29.989Z,101620.97
2022-10-18T11:04:00.219Z,101619.50
2022-10-18T11:06:54.975Z,101620.34
2022-10-18T11:09:42.839Z,101625.34
2022-10-18T11:12:21.070Z,101625.72
2022-10-18T11:14:54.416Z,101619.84
2022-10-18T11:17:28.619Z,101624.59
2022-10-18T11:20:25.782Z,101623.97
2022-10-18T11:23:00.830Z,101625.59
2022-10-18T11:25:43.995Z,101628.28
2022-10-18T11:28:22.781Z,101626.00
2022-10-18T11:31:05.354Z,101623.47
2022-10-18T11:34:07.223Z,101622.13
2022-10-18T11:36:45.417Z,101618.31
2022-10-18T11:39:32.443Z,101615.81
2022-10-18T11:42:10.932Z,101619.50
2022-10-18T11:44:47.236Z,101624.06
2022-10-18T11:47:22.032Z,101623.63
2022-10-18T11:50:01.494Z,101620.91
2022-10-18T11:52:39.045Z,101616.56
2022-10-18T11:55:19.719Z,101619.06
2022-10-18T11:57:56.877Z,101618.22
2022-10-18T12:00:40.278Z,101618.22
2022-10-18T12:03:19.683Z,101609.31
2022-10-18T12:05:49.374Z,101616.19
2022-10-18T12:08:22.442Z,101609.56
2022-10-18T12:11:06.970Z,101610.41
2022-10-18T12:13:41.407Z,101600.97
2022-10-18T12:16:10.417Z,101598.94
2022-10-18T12:18:48.112Z,101593.34
2022-10-18T12:21:15.722Z,101591.16
2022-10-18T12:23:50.500Z,101592.25
2022-10-18T12:26:18.813Z,101601.00
2022-10-18T12:28:57.664Z,101605.34
2022-10-18T12:31:33.767Z,101597.56
2022-10-18T12:34:04.417Z,101590.75
2022-10-18T12:36:50.785Z,101590.69
2022-10-18T12:39:33.438Z,101592.56
2022-10-18T12:42:21.429Z,101594.59
2022-10-18T12:45:00.730Z,101590.16
2022-10-18T12:47:30.614Z,101592.38
2022-10-18T12:50:00.925Z,101584.91
2022-10-18T12:52:31.907Z,101589.13
2022-10-18T12:55:07.101Z,101593.19
2022-10-18T12:58:04.294Z,101588.91
2022-10-18T13:01:08.730Z,101584.66
2022-10-18T13:03:52.892Z,101591.06
2022-10-18T13:06:21.476Z,101592.53
2022-10-18T13:08:51.087Z,101583.53
2022-10-18T13:11:36.727Z,101573.66
2022-10-18T13:14:30.024Z,101571.84
2022-10-18T13:17:04.248Z,101573.47
2022-10-18T13:19:40.186Z,101579.78
2022-10-18T13:22:26.081Z,101563.97
2022-10-18T13:25:03.541Z,101561.47
2022-10-18T13:27:40.390Z,101573.34
2022-10-18T13:30:47.177Z,101570.44
2022-10-18T13:33:29.891Z,101577.34
2022-10-18T13:36:01.005Z,101576.22
2022-10-18T13:38:40.234Z,101578.88
2022-10-18T13:41:10.376Z,101578.81
2022-10-18T13:44:21.690Z,101571.69
2022-10-18T13:47:12.096Z,101575.13
2022-10-18T13:50:02.925Z,101578.22
2022-10-18T13:52:47.909Z,101574.88
2022-10-18T13:55:40.959Z,101578.78
2022-10-18T13:58:17.941Z,101582.50
2022-10-18T14:01:04.240Z,101586.44
2022-10-18T14:03:57.146Z,101586.78
2022-10-18T14:06:28.140Z,101593.56
2022-10-18T14:09:09.374Z,101593.19
2022-10-18T14:11:50.558Z,101592.38
2022-10-18T14:14:26.290Z,101591.34
2022-10-18T14:17:00.135Z,101585.09
2022-10-18T14:19:35.003Z,101575.66
2022-10-18T14:22:11.867Z,101578.97
2022-10-18T14:24:45.895Z,101575.25
2022-10-18T14:27:17.734Z,101579.63
2022-10-18T14:29:45.611Z,101582.72
2022-10-18T14:32:24.848Z,101590.59
2022-10-18T14:34:53.889Z,101591.84
2022-10-18T14:37:28.396Z,101592.00
2022-10-18T14:39:57.328Z,101599.81
2022-10-18T14:42:26.283Z,101594.63
2022-10-18T14:44:56.414Z,101599.38
2022-10-18T14:47:26.311Z,101592.84
2022-10-18T14:49:57.625Z,101599.47
2022-10-18T14:52:31.664Z,101607.09
2022-10-18T14:55:03.575Z,101609.34
2022-10-18T14:57:34.888Z,101601.44
2022-10-18T15:00:06.512Z,101596.22
2022-10-18T15:02:37.338Z,101609.91
2022-10-18T15:05:09.195Z,101596.78
2022-10-18T15:07:37.395Z,101600.72
2022-10-18T15:10:09.588Z,101599.88
2022-10-18T15:13:08.107Z,101603.41
2022-10-18T15:15:34.306Z,101611.69
2022-10-18T15:18:05.098Z,101604.63
2022-10-18T15:20:39.232Z,101609.16
2022-10-18T15:23:24.820Z,101611.19
2022-10-18T15:26:01.232Z,101604.13
2022-10-18T15:28:32.199Z,101610.38
2022-10-18T15:31:01.848Z,101600.16
2022-10-18T15:33:34.312Z,101604.91
2022-10-18T15:36:10.023Z,101610.66
2022-10-18T15:38:38.010Z,101616.44
2022-10-18T15:41:39.378Z,101612.44
2022-10-18T15:44:31.624Z,101615.88
2022-10-18T15:47:20.675Z,101611.22
2022-10-18T15:49:56.745Z,101618.66
2022-10-18T15:52:45.793Z,101613.53
2022-10-18T15:55:56.240Z,101611.34
2022-10-18T15:58:26.043Z,101617.13
2022-10-18T16:00:59.124Z,101610.41
2022-10-18T16:03:27.745Z,101612.44
2022-10-18T16:05:59.884Z,101615.16
2022-10-18T16:08:30.602Z,101619.91
2022-10-18T16:10:59.860Z,101618.59
2022-10-18T16:13:27.970Z,101617.28
2022-10-18T16:15:57.528Z,101619.97
2022-10-18T16:18:26.218Z,101618.69
2022-10-18T16:20:54.371Z,101618.59
2022-10-18T16:23:25.387Z,101613.09
2022-10-18T16:25:53.703Z,101611.78
2022-10-18T16:28:23.209Z,101617.72
2022-10-18T16:30:58.918Z,101614.38
2022-10-18T16:33:26.889Z,101620.31
2022-10-18T16:35:55.018Z,101614.44
2022-10-18T16:38:32.596Z,101624.25
2022-10-18T16:41:04.094Z,101634.44
2022-10-18T16:43:32.544Z,101637.34
2022-10-18T16:46:02.202Z,101640.88
2022-10-18T16:48:30.548Z,101646.63
2022-10-18T16:50:58.810Z,101648.53
2022-10-18T16:53:27.962Z,101655.59
2022-10-18T16:55:57.920Z,101657.34
2022-10-18T16:58:27.192Z,101651.47
2022-10-18T17:00:55.562Z,101656.00
2022-10-18T17:03:27.621Z,101663.59
2022-10-18T17:05:56.357Z,101664.31
2022-10-18T17:08:27.168Z,101668.03
2022-10-18T17:10:57.310Z,101667.00
2022-10-18T17:13:27.719Z,101670.16
2022-10-18T17:15:55.625Z,101676.09
2022-10-18T17:18:27.734Z,101673.91
2022-10-18T17:20:59.484Z,101667.84
2022-10-18T17:23:27.425Z,101666.38
2022-10-18T17:26:05.294Z,101666.72
2022-10-18T17:28:35.331Z,101664.19
2022-10-18T17:31:03.241Z,101665.03
2022-10-18T17:33:34.463Z,101669.25
2022-10-18T17:36:02.402Z,101665.88
2022-10-18T17:38:30.121Z,101677.81
2022-10-18T17:40:57.914Z,101678.84
2022-10-18T17:43:25.962Z,101682.72
2022-10-18T17:45:56.916Z,101682.56
2022-10-18T17:48:25.697Z,101683.19
2022-10-18T17:50:55.007Z,101679.16
2022-10-18T17:53:25.977Z,101678.44
2022-10-18T17:56:02.450Z,101681.81
2022-10-18T17:58:30.914Z,101680.97
2022-10-18T18:00:59.190Z,101685.00
2022-10-18T18:03:27.040Z,101680.28
2022-10-18T18:05:56.323Z,101685.25
2022-10-18T18:08:25.546Z,101686.44
2022-10-18T18:10:55.694Z,101685.47
2022-10-18T18:13:23.635Z,101681.56
2022-10-18T18:15:51.564Z,101679.91
2022-10-18T18:18:19.556Z,101683.63
2022-10-18T18:20:54.539Z,101684.28
2022-10-18T18:23:24.708Z,101678.06
2022-10-18T18:25:57.067Z,101685.84
2022-10-18T18:28:24.971Z,101684.50
2022-10-18T18:30:52.897Z,101683.84
2022-10-18T18:33:20.710Z,101675.41
2022-10-18T18:35:56.030Z,101683.81
2022-10-18T18:38:25.228Z,101677.44
2022-10-18T18:41:04.377Z,101683.13
2022-10-18T18:43:32.247Z,101683.63
2022-10-18T18:46:00.069Z,101685.63
2022-10-18T18:48:32.556Z,101683.97
2022-10-18T18:51:00.277Z,101689.50
2022-10-18T18:53:29.933Z,101685.81
2022-10-18T18:56:02.989Z,101684.78
2022-10-18T18:58:30.697Z,101674.38
2022-10-18T19:00:58.422Z,101675.22
2022-10-18T19:03:26.169Z,101682.44
2022-10-18T19:06:03.402Z,101673.25
2022-10-18T19:08:32.897Z,101672.94
2022-10-18T19:11:02.224Z,101680.31
2022-10-18T19:13:30.132Z,101678.66
2022-10-18T19:16:12.498Z,101677.00
2022-10-18T19:18:40.286Z,101678.66
2022-10-18T19:21:08.067Z,101672.78
2022-10-18T19:23:37.182Z,101674.63
2022-10-18T19:26:11.564Z,101677.16
2022-10-18T19:28:39.460Z,101674.63
2022-10-18T19:31:07.591Z,101678.47
2022-10-18T19:33:47.969Z,101681.16
2022-10-18T19:36:16.608Z,101681.00
2022-10-18T19:38:45.752Z,101687.38
2022-10-18T19:41:13.613Z,101686.53
2022-10-18T19:43:41.503Z,101682.16
2022-10-18T19:46:09.180Z,101685.38
2022-10-18T19:48:36.857Z,101677.16
2022-10-18T19:51:07.072Z,101680.66
2022-10-18T19:53:36.927Z,101688.56
2022-10-18T19:56:07.971Z,101690.22
2022-10-18T19:58:36.964Z,101685.69
2022-10-18T20:01:04.853Z,101675.78
2022-10-18T20:03:32.796Z,101687.72
2022-10-18T20:06:02.094Z,101686.06
2022-10-18T20:08:31.548Z,101689.75
2022-10-18T20:11:02.347Z,101688.38
2022-10-18T20:13:31.673Z,101694.75
2022-10-18T20:15:59.720Z,101690.44
2022-10-18T20:18:27.862Z,101687.38
2022-10-18T20:20:55.804Z,101690.06
2022-10-18T20:23:23.748Z,101686.38
2022-10-18T20:25:59.096Z,101689.72
2022-10-18T20:28:27.664Z,101688.06
2022-10-18T20:31:04.975Z,101688.72
2022-10-18T20:33:33.553Z,101688.22
2022-10-18T20:36:06.961Z,101685.38
2022-10-18T20:38:35.502Z,101690.22
2022-10-18T20:41:07.109Z,101688.56
2022-10-18T20:43:35.217Z,101681.34
2022-10-18T20:46:06.013Z,101675.63
2022-10-18T20:48:35.123Z,101680.16
2022-10-18T20:51:07.289Z,101670.28
2022-10-18T20:53:36.289Z,101672.63
2022-10-18T20:56:05.279Z,101671.81
2022-10-18T20:58:33.265Z,101671.44
2022-10-18T21:01:08.574Z,101663.22
2022-10-18T21:03:39.835Z,101666.91
2022-10-18T21:06:11.700Z,101668.59
2022-10-18T21:08:39.762Z,101667.91
2022-10-18T21:11:08.346Z,101665.22
2022-10-18T21:13:36.630Z,101664.38
2022-10-18T21:16:05.926Z,101668.59
2022-10-18T21:18:36.681Z,101668.28
2022-10-18T21:23:41.838Z,101661.56
2022-10-18T21:26:14.516Z,101666.09
2022-10-18T21:28:42.577Z,101659.72
2022-10-18T21:31:12.866Z,101656.72
2022-10-18T21:33:43.182Z,101654.53
2022-10-18T21:36:11.804Z,101654.69
2022-10-18T21:38:40.032Z,101654.00
2022-10-18T21:41:12.210Z,101647.31
2022-10-18T21:43:41.929Z,101644.78
2022-10-18T21:46:11.136Z,101650.47
2022-10-18T21:48:40.147Z,101642.44
2022-10-18T21:51:10.029Z,101645.13
2022-10-18T21:53:38.438Z,101637.75
2022-10-18T21:56:12.701Z,101637.75
2022-10-18T21:58:42.676Z,101639.09
2022-10-18T22:01:11.449Z,101634.56
2022-10-18T22:03:42.436Z,101633.72
2022-10-18T22:06:15.106Z,101630.38
2022-10-18T22:08:44.354Z,101635.06
2022-10-18T22:11:15.755Z,101631.03
2022-10-18T22:13:44.970Z,101626.00
2022-10-18T22:16:15.624Z,101629.97
2022-10-18T22:18:44.529Z,101637.19
2022-10-18T22:21:15.746Z,101639.03
2022-10-18T22:23:48.545Z,101641.06
2022-10-18T22:26:20.039Z,101640.22
2022-10-18T22:28:48.144Z,101639.69
2022-10-18T22:31:17.889Z,101649.56
2022-10-18T22:33:46.144Z,101646.06
2022-10-18T22:36:15.561Z,101649.25
2022-10-18T22:38:43.782Z,101643.72
2022-10-18T22:41:12.993Z,101642.38
2022-10-18T22:43:41.556Z,101636.31
2022-10-18T22:46:11.846Z,101629.63
2022-10-18T22:48:40.772Z,101646.06
2022-10-18T22:51:09.993Z,101642.53
2022-10-18T22:53:40.831Z,101638.00
2022-10-18T22:56:10.952Z,101642.22
2022-10-18T22:58:39.235Z,101645.91
2022-10-18T23:01:08.773Z,101637.69
2022-10-18T23:03:37.519Z,101648.56
2022-10-18T23:06:06.670Z,101638.84
2022-10-18T23:08:34.954Z,101647.41
2022-10-18T23:11:04.304Z,101641.53
2022-10-18T23:13:34.132Z,101642.38
2022-10-18T23:16:05.149Z,101639.69
2022-10-18T23:18:33.477Z,101640.53
2022-10-18T23:21:03.243Z,101646.41
2022-10-18T23:23:34.931Z,101646.06
2022-10-18T23:26:05.776Z,101653.47
2022-10-18T23:28:36.039Z,101645.91
2022-10-18T23:31:09.316Z,101650.72
2022-10-18T23:33:37.640Z,101648.41
2022-10-18T23:36:06.775Z,101645.88
2022-10-18T23:38:35.611Z,101652.94
2022-10-18T23:41:05.424Z,101650.06
2022-10-18T23:43:33.562Z,101647.19
2022-10-18T23:46:01.734Z,101652.06
2022-10-18T23:48:29.862Z,101653.75
2022-10-18T23:50:58.026Z,101651.69
2022-10-18T23:53:25.995Z,101654.38
2022-10-18T23:55:54.895Z,101651.91
2022-10-18T23:58:25.059Z,101648.00
